sensor_id;sensor_type;location;lat;lon;timestamp;P1;durP1;ratioP1;P2;durP2;ratioP2
61527;SDS011;47395;42.032;-8.634;2024-03-22T00:00:00;28.15;;;11.10;;
61527;SDS011;47395;42.032;-8.634;2024-03-22T00:02:01;29.88;;;11.35;;
61527;SDS011;47395;42.032;-8.634;2024-03-22T00:04:02;29.48;;;11.15;;
61527;SDS011;47395;42.032;-8.634;2024-03-22T00:06:03;23.25;;;11.32;;
61527;SDS011;47395;42.032;-8.634;2024-03-22T00:08:05;20.23;;;10.70;;
61527;SDS011;47395;42.032;-8.634;2024-03-22T00:10:06;31.65;;;10.88;;
61527;SDS011;47395;42.032;-8.634;2024-03-22T00:12:08;26.08;;;10.88;;
61527;SDS011;47395;42.032;-8.634;2024-03-22T00:14:11;27.33;;;11.30;;
61527;SDS011;47395;42.032;-8.634;2024-03-22T00:16:12;29.60;;;11.10;;
61527;SDS011;47395;42.032;-8.634;2024-03-22T00:18:13;33.15;;;11.75;;
61527;SDS011;47395;42.032;-8.634;2024-03-22T00:20:14;33.30;;;12.13;;
61527;SDS011;47395;42.032;-8.634;2024-03-22T00:22:15;27.10;;;10.98;;
61527;SDS011;47395;42.032;-8.634;2024-03-22T00:24:17;26.17;;;10.98;;
61527;SDS011;47395;42.032;-8.634;2024-03-22T00:26:18;26.77;;;11.18;;
61527;SDS011;47395;42.032;-8.634;2024-03-22T00:28:19;22.05;;;10.63;;
61527;SDS011;47395;42.032;-8.634;2024-03-22T00:30:20;26.63;;;10.63;;
61527;SDS011;47395;42.032;-8.634;2024-03-22T00:32:22;25.83;;;10.00;;
61527;SDS011;47395;42.032;-8.634;2024-03-22T00:34:23;22.35;;;10.18;;
61527;SDS011;47395;42.032;-8.634;2024-03-22T00:36:24;22.23;;;10.13;;
61527;SDS011;47395;42.032;-8.634;2024-03-22T00:38:27;24.92;;;10.80;;
61527;SDS011;47395;42.032;-8.634;2024-03-22T00:40:29;19.48;;;10.02;;
61527;SDS011;47395;42.032;-8.634;2024-03-22T00:42:30;19.27;;;9.68;;
61527;SDS011;47395;42.032;-8.634;2024-03-22T00:44:31;21.20;;;8.95;;
61527;SDS011;47395;42.032;-8.634;2024-03-22T00:46:32;22.48;;;9.20;;
61527;SDS011;47395;42.032;-8.634;2024-03-22T00:48:34;25.33;;;9.07;;
61527;SDS011;47395;42.032;-8.634;2024-03-22T00:50:36;20.63;;;8.63;;
61527;SDS011;47395;42.032;-8.634;2024-03-22T00:52:37;21.70;;;9.70;;
61527;SDS011;47395;42.032;-8.634;2024-03-22T00:54:38;23.67;;;9.65;;
61527;SDS011;47395;42.032;-8.634;2024-03-22T00:56:40;30.42;;;9.65;;
61527;SDS011;47395;42.032;-8.634;2024-03-22T00:58:41;19.88;;;9.70;;
61527;SDS011;47395;42.032;-8.634;2024-03-22T01:00:42;25.05;;;10.00;;
61527;SDS011;47395;42.032;-8.634;2024-03-22T01:02:44;24.77;;;9.75;;
61527;SDS011;47395;42.032;-8.634;2024-03-22T01:04:45;24.80;;;10.85;;
61527;SDS011;47395;42.032;-8.634;2024-03-22T01:06:46;20.70;;;10.25;;
61527;SDS011;47395;42.032;-8.634;2024-03-22T01:08:47;29.88;;;11.60;;
61527;SDS011;47395;42.032;-8.634;2024-03-22T01:10:48;31.38;;;10.05;;
61527;SDS011;47395;42.032;-8.634;2024-03-22T01:12:49;24.77;;;10.63;;
61527;SDS011;47395;42.032;-8.634;2024-03-22T01:14:50;19.70;;;10.70;;
61527;SDS011;47395;42.032;-8.634;2024-03-22T01:16:51;28.02;;;10.82;;
61527;SDS011;47395;42.032;-8.634;2024-03-22T01:18:54;21.98;;;10.88;;
61527;SDS011;47395;42.032;-8.634;2024-03-22T01:20:55;21.10;;;10.43;;
61527;SDS011;47395;42.032;-8.634;2024-03-22T01:22:59;20.17;;;10.23;;
61527;SDS011;47395;42.032;-8.634;2024-03-22T01:25:01;21.38;;;9.80;;
61527;SDS011;47395;42.032;-8.634;2024-03-22T01:27:02;26.10;;;11.00;;
61527;SDS011;47395;42.032;-8.634;2024-03-22T01:29:03;16.50;;;10.25;;
61527;SDS011;47395;42.032;-8.634;2024-03-22T01:31:06;22.55;;;10.55;;
61527;SDS011;47395;42.032;-8.634;2024-03-22T01:33:07;23.40;;;8.80;;
61527;SDS011;47395;42.032;-8.634;2024-03-22T01:35:08;19.73;;;9.23;;
61527;SDS011;47395;42.032;-8.634;2024-03-22T01:37:09;22.42;;;8.55;;
61527;SDS011;47395;42.032;-8.634;2024-03-22T01:39:12;19.15;;;8.77;;
61527;SDS011;47395;42.032;-8.634;2024-03-22T01:41:15;27.40;;;8.27;;
61527;SDS011;47395;42.032;-8.634;2024-03-22T01:43:16;24.40;;;8.82;;
61527;SDS011;47395;42.032;-8.634;2024-03-22T01:45:17;21.83;;;8.18;;
61527;SDS011;47395;42.032;-8.634;2024-03-22T01:47:18;14.35;;;7.30;;
61527;SDS011;47395;42.032;-8.634;2024-03-22T01:49:19;16.83;;;7.78;;
61527;SDS011;47395;42.032;-8.634;2024-03-22T01:51:23;18.88;;;8.32;;
61527;SDS011;47395;42.032;-8.634;2024-03-22T01:53:26;21.63;;;7.53;;
61527;SDS011;47395;42.032;-8.634;2024-03-22T01:55:27;18.08;;;8.02;;
61527;SDS011;47395;42.032;-8.634;2024-03-22T01:57:51;17.33;;;7.80;;
61527;SDS011;47395;42.032;-8.634;2024-03-22T01:59:54;20.25;;;8.30;;
61527;SDS011;47395;42.032;-8.634;2024-03-22T02:01:57;18.23;;;7.88;;
61527;SDS011;47395;42.032;-8.634;2024-03-22T02:03:58;19.85;;;9.23;;
61527;SDS011;47395;42.032;-8.634;2024-03-22T02:06:00;13.77;;;7.57;;
61527;SDS011;47395;42.032;-8.634;2024-03-22T02:08:01;19.45;;;8.02;;
61527;SDS011;47395;42.032;-8.634;2024-03-22T02:10:04;16.83;;;8.02;;
61527;SDS011;47395;42.032;-8.634;2024-03-22T02:12:06;17.27;;;7.13;;
61527;SDS011;47395;42.032;-8.634;2024-03-22T02:14:07;23.35;;;7.53;;
61527;SDS011;47395;42.032;-8.634;2024-03-22T02:16:08;16.05;;;7.90;;
61527;SDS011;47395;42.032;-8.634;2024-03-22T02:18:09;19.10;;;8.05;;
61527;SDS011;47395;42.032;-8.634;2024-03-22T02:20:10;19.77;;;7.82;;
61527;SDS011;47395;42.032;-8.634;2024-03-22T02:22:12;17.00;;;8.45;;
61527;SDS011;47395;42.032;-8.634;2024-03-22T02:24:13;18.52;;;8.23;;
61527;SDS011;47395;42.032;-8.634;2024-03-22T02:26:15;14.73;;;7.65;;
61527;SDS011;47395;42.032;-8.634;2024-03-22T02:28:16;16.02;;;8.88;;
61527;SDS011;47395;42.032;-8.634;2024-03-22T02:30:17;29.45;;;9.32;;
61527;SDS011;47395;42.032;-8.634;2024-03-22T02:32:18;17.48;;;8.43;;
61527;SDS011;47395;42.032;-8.634;2024-03-22T02:34:19;15.85;;;8.82;;
61527;SDS011;47395;42.032;-8.634;2024-03-22T02:36:20;22.50;;;8.80;;
61527;SDS011;47395;42.032;-8.634;2024-03-22T02:38:21;20.77;;;8.02;;
61527;SDS011;47395;42.032;-8.634;2024-03-22T02:40:25;20.65;;;7.45;;
61527;SDS011;47395;42.032;-8.634;2024-03-22T02:42:26;17.42;;;7.65;;
61527;SDS011;47395;42.032;-8.634;2024-03-22T02:44:29;15.85;;;7.57;;
61527;SDS011;47395;42.032;-8.634;2024-03-22T02:46:30;18.98;;;7.60;;
61527;SDS011;47395;42.032;-8.634;2024-03-22T02:48:31;21.65;;;7.32;;
61527;SDS011;47395;42.032;-8.634;2024-03-22T02:50:33;16.98;;;7.40;;
61527;SDS011;47395;42.032;-8.634;2024-03-22T02:52:34;23.95;;;8.10;;
61527;SDS011;47395;42.032;-8.634;2024-03-22T02:54:35;21.80;;;7.93;;
61527;SDS011;47395;42.032;-8.634;2024-03-22T02:56:36;22.25;;;7.95;;
61527;SDS011;47395;42.032;-8.634;2024-03-22T02:58:37;23.02;;;8.57;;
61527;SDS011;47395;42.032;-8.634;2024-03-22T03:00:38;19.92;;;9.00;;
61527;SDS011;47395;42.032;-8.634;2024-03-22T03:02:39;15.88;;;8.82;;
61527;SDS011;47395;42.032;-8.634;2024-03-22T03:04:40;14.82;;;8.82;;
61527;SDS011;47395;42.032;-8.634;2024-03-22T03:06:41;21.77;;;8.50;;
61527;SDS011;47395;42.032;-8.634;2024-03-22T03:08:42;19.42;;;8.48;;
61527;SDS011;47395;42.032;-8.634;2024-03-22T03:10:43;17.25;;;8.18;;
61527;SDS011;47395;42.032;-8.634;2024-03-22T03:12:45;15.43;;;7.45;;
61527;SDS011;47395;42.032;-8.634;2024-03-22T03:14:46;15.25;;;8.45;;
61527;SDS011;47395;42.032;-8.634;2024-03-22T03:16:47;19.83;;;7.35;;
61527;SDS011;47395;42.032;-8.634;2024-03-22T03:18:48;16.92;;;7.80;;
61527;SDS011;47395;42.032;-8.634;2024-03-22T03:20:49;17.15;;;7.65;;
61527;SDS011;47395;42.032;-8.634;2024-03-22T03:22:51;14.95;;;8.15;;
61527;SDS011;47395;42.032;-8.634;2024-03-22T03:24:53;13.05;;;8.02;;
61527;SDS011;47395;42.032;-8.634;2024-03-22T03:26:54;24.67;;;9.43;;
61527;SDS011;47395;42.032;-8.634;2024-03-22T03:28:55;18.60;;;8.43;;
61527;SDS011;47395;42.032;-8.634;2024-03-22T03:30:56;14.63;;;8.07;;
61527;SDS011;47395;42.032;-8.634;2024-03-22T03:32:57;22.85;;;8.48;;
61527;SDS011;47395;42.032;-8.634;2024-03-22T03:34:58;18.30;;;8.60;;
61527;SDS011;47395;42.032;-8.634;2024-03-22T03:36:59;24.27;;;8.32;;
61527;SDS011;47395;42.032;-8.634;2024-03-22T03:39:02;14.20;;;8.20;;
61527;SDS011;47395;42.032;-8.634;2024-03-22T03:41:04;17.45;;;8.20;;
61527;SDS011;47395;42.032;-8.634;2024-03-22T03:43:05;19.40;;;8.05;;
61527;SDS011;47395;42.032;-8.634;2024-03-22T03:45:07;17.70;;;8.40;;
61527;SDS011;47395;42.032;-8.634;2024-03-22T03:47:08;16.08;;;7.70;;
61527;SDS011;47395;42.032;-8.634;2024-03-22T03:49:09;12.80;;;7.97;;
61527;SDS011;47395;42.032;-8.634;2024-03-22T03:51:10;15.00;;;8.18;;
61527;SDS011;47395;42.032;-8.634;2024-03-22T03:53:13;19.08;;;7.93;;
61527;SDS011;47395;42.032;-8.634;2024-03-22T03:55:14;17.50;;;8.02;;
61527;SDS011;47395;42.032;-8.634;2024-03-22T03:57:17;17.92;;;7.50;;
61527;SDS011;47395;42.032;-8.634;2024-03-22T03:59:18;13.07;;;7.22;;
61527;SDS011;47395;42.032;-8.634;2024-03-22T04:01:19;13.93;;;6.85;;
61527;SDS011;47395;42.032;-8.634;2024-03-22T04:03:20;14.02;;;7.57;;
61527;SDS011;47395;42.032;-8.634;2024-03-22T04:05:23;19.13;;;7.88;;
61527;SDS011;47395;42.032;-8.634;2024-03-22T04:07:24;15.68;;;7.53;;
61527;SDS011;47395;42.032;-8.634;2024-03-22T04:09:25;17.27;;;7.70;;
61527;SDS011;47395;42.032;-8.634;2024-03-22T04:11:28;20.52;;;7.53;;
61527;SDS011;47395;42.032;-8.634;2024-03-22T04:13:29;20.45;;;7.75;;
61527;SDS011;47395;42.032;-8.634;2024-03-22T04:15:33;20.05;;;7.47;;
61527;SDS011;47395;42.032;-8.634;2024-03-22T04:17:36;21.65;;;9.20;;
61527;SDS011;47395;42.032;-8.634;2024-03-22T04:19:37;15.07;;;7.78;;
61527;SDS011;47395;42.032;-8.634;2024-03-22T04:21:38;16.52;;;8.55;;
61527;SDS011;47395;42.032;-8.634;2024-03-22T04:23:40;20.30;;;8.68;;
61527;SDS011;47395;42.032;-8.634;2024-03-22T04:25:42;19.08;;;8.23;;
61527;SDS011;47395;42.032;-8.634;2024-03-22T04:27:55;17.10;;;10.00;;
61527;SDS011;47395;42.032;-8.634;2024-03-22T04:29:56;21.13;;;11.90;;
61527;SDS011;47395;42.032;-8.634;2024-03-22T04:31:57;33.47;;;10.55;;
61527;SDS011;47395;42.032;-8.634;2024-03-22T04:33:58;20.13;;;10.77;;
61527;SDS011;47395;42.032;-8.634;2024-03-22T04:36:01;22.92;;;12.77;;
61527;SDS011;47395;42.032;-8.634;2024-03-22T04:38:02;37.08;;;15.70;;
61527;SDS011;47395;42.032;-8.634;2024-03-22T04:40:04;35.50;;;17.20;;
61527;SDS011;47395;42.032;-8.634;2024-03-22T04:42:06;36.80;;;15.93;;
61527;SDS011;47395;42.032;-8.634;2024-03-22T04:44:07;45.35;;;23.02;;
61527;SDS011;47395;42.032;-8.634;2024-03-22T04:46:10;33.47;;;14.15;;
61527;SDS011;47395;42.032;-8.634;2024-03-22T04:48:12;31.10;;;11.80;;
61527;SDS011;47395;42.032;-8.634;2024-03-22T04:50:15;21.15;;;10.73;;
61527;SDS011;47395;42.032;-8.634;2024-03-22T04:52:16;28.42;;;11.90;;
61527;SDS011;47395;42.032;-8.634;2024-03-22T04:54:18;16.88;;;9.73;;
61527;SDS011;47395;42.032;-8.634;2024-03-22T04:56:19;25.73;;;10.35;;
61527;SDS011;47395;42.032;-8.634;2024-03-22T04:58:21;30.35;;;11.63;;
61527;SDS011;47395;42.032;-8.634;2024-03-22T05:00:22;27.10;;;11.90;;
61527;SDS011;47395;42.032;-8.634;2024-03-22T05:04:48;32.08;;;14.27;;
61527;SDS011;47395;42.032;-8.634;2024-03-22T05:06:50;31.08;;;13.05;;
61527;SDS011;47395;42.032;-8.634;2024-03-22T05:08:50;19.85;;;11.48;;
61527;SDS011;47395;42.032;-8.634;2024-03-22T05:10:52;25.38;;;11.80;;
61527;SDS011;47395;42.032;-8.634;2024-03-22T05:12:53;19.73;;;10.40;;
61527;SDS011;47395;42.032;-8.634;2024-03-22T05:14:54;18.25;;;9.80;;
61527;SDS011;47395;42.032;-8.634;2024-03-22T05:16:55;25.83;;;10.57;;
61527;SDS011;47395;42.032;-8.634;2024-03-22T05:18:56;23.27;;;12.43;;
61527;SDS011;47395;42.032;-8.634;2024-03-22T05:20:57;30.15;;;11.00;;
61527;SDS011;47395;42.032;-8.634;2024-03-22T05:22:58;24.83;;;10.18;;
61527;SDS011;47395;42.032;-8.634;2024-03-22T05:24:59;25.25;;;10.13;;
61527;SDS011;47395;42.032;-8.634;2024-03-22T05:27:00;23.13;;;10.15;;
61527;SDS011;47395;42.032;-8.634;2024-03-22T05:29:01;28.52;;;10.80;;
61527;SDS011;47395;42.032;-8.634;2024-03-22T05:31:03;25.58;;;10.25;;
61527;SDS011;47395;42.032;-8.634;2024-03-22T05:33:04;20.85;;;9.00;;
61527;SDS011;47395;42.032;-8.634;2024-03-22T05:35:05;21.73;;;10.40;;
61527;SDS011;47395;42.032;-8.634;2024-03-22T05:37:07;18.92;;;9.65;;
61527;SDS011;47395;42.032;-8.634;2024-03-22T05:39:09;19.13;;;9.18;;
61527;SDS011;47395;42.032;-8.634;2024-03-22T05:41:13;23.15;;;9.10;;
61527;SDS011;47395;42.032;-8.634;2024-03-22T05:43:14;17.25;;;9.23;;
61527;SDS011;47395;42.032;-8.634;2024-03-22T05:45:15;21.52;;;8.85;;
61527;SDS011;47395;42.032;-8.634;2024-03-22T05:47:16;25.73;;;9.52;;
61527;SDS011;47395;42.032;-8.634;2024-03-22T05:49:17;25.40;;;9.73;;
61527;SDS011;47395;42.032;-8.634;2024-03-22T05:51:18;18.75;;;8.90;;
61527;SDS011;47395;42.032;-8.634;2024-03-22T05:53:19;20.05;;;8.45;;
61527;SDS011;47395;42.032;-8.634;2024-03-22T05:55:20;23.67;;;8.90;;
61527;SDS011;47395;42.032;-8.634;2024-03-22T05:57:20;24.63;;;8.95;;
61527;SDS011;47395;42.032;-8.634;2024-03-22T05:59:21;27.42;;;8.80;;
61527;SDS011;47395;42.032;-8.634;2024-03-22T06:01:22;14.55;;;9.07;;
61527;SDS011;47395;42.032;-8.634;2024-03-22T06:03:23;21.35;;;9.20;;
61527;SDS011;47395;42.032;-8.634;2024-03-22T06:05:24;24.77;;;8.88;;
61527;SDS011;47395;42.032;-8.634;2024-03-22T06:07:25;25.38;;;8.63;;
61527;SDS011;47395;42.032;-8.634;2024-03-22T06:09:26;14.38;;;8.40;;
61527;SDS011;47395;42.032;-8.634;2024-03-22T06:11:37;20.42;;;8.45;;
61527;SDS011;47395;42.032;-8.634;2024-03-22T06:13:38;29.88;;;9.93;;
61527;SDS011;47395;42.032;-8.634;2024-03-22T06:15:41;20.38;;;9.32;;
61527;SDS011;47395;42.032;-8.634;2024-03-22T06:17:45;27.85;;;9.13;;
61527;SDS011;47395;42.032;-8.634;2024-03-22T06:19:46;17.15;;;8.60;;
61527;SDS011;47395;42.032;-8.634;2024-03-22T06:21:47;22.30;;;8.55;;
61527;SDS011;47395;42.032;-8.634;2024-03-22T06:23:49;16.13;;;7.75;;
61527;SDS011;47395;42.032;-8.634;2024-03-22T06:25:54;19.08;;;8.15;;
61527;SDS011;47395;42.032;-8.634;2024-03-22T06:27:55;22.30;;;8.32;;
61527;SDS011;47395;42.032;-8.634;2024-03-22T06:29:56;15.88;;;8.05;;
61527;SDS011;47395;42.032;-8.634;2024-03-22T06:31:57;16.13;;;7.57;;
61527;SDS011;47395;42.032;-8.634;2024-03-22T06:33:58;17.83;;;7.28;;
61527;SDS011;47395;42.032;-8.634;2024-03-22T06:36:02;19.52;;;8.38;;
61527;SDS011;47395;42.032;-8.634;2024-03-22T06:38:03;18.17;;;8.25;;
61527;SDS011;47395;42.032;-8.634;2024-03-22T06:40:05;16.13;;;8.82;;
61527;SDS011;47395;42.032;-8.634;2024-03-22T06:42:07;15.95;;;7.35;;
61527;SDS011;47395;42.032;-8.634;2024-03-22T06:44:08;13.10;;;7.78;;
61527;SDS011;47395;42.032;-8.634;2024-03-22T06:46:12;16.52;;;8.45;;
61527;SDS011;47395;42.032;-8.634;2024-03-22T06:48:13;14.82;;;8.32;;
61527;SDS011;47395;42.032;-8.634;2024-03-22T06:50:17;19.13;;;8.43;;
61527;SDS011;47395;42.032;-8.634;2024-03-22T06:52:19;22.27;;;8.23;;
61527;SDS011;47395;42.032;-8.634;2024-03-22T06:54:20;26.17;;;8.43;;
61527;SDS011;47395;42.032;-8.634;2024-03-22T06:56:21;17.85;;;8.32;;
61527;SDS011;47395;42.032;-8.634;2024-03-22T06:58:22;22.58;;;7.85;;
61527;SDS011;47395;42.032;-8.634;2024-03-22T07:00:24;14.88;;;8.05;;
61527;SDS011;47395;42.032;-8.634;2024-03-22T07:02:25;19.50;;;8.32;;
61527;SDS011;47395;42.032;-8.634;2024-03-22T07:04:26;17.65;;;8.07;;
61527;SDS011;47395;42.032;-8.634;2024-03-22T07:06:28;19.70;;;7.78;;
61527;SDS011;47395;42.032;-8.634;2024-03-22T07:08:31;14.38;;;7.32;;
61527;SDS011;47395;42.032;-8.634;2024-03-22T07:10:32;20.02;;;7.75;;
61527;SDS011;47395;42.032;-8.634;2024-03-22T07:12:33;12.57;;;7.00;;
61527;SDS011;47395;42.032;-8.634;2024-03-22T07:14:35;23.45;;;7.47;;
61527;SDS011;47395;42.032;-8.634;2024-03-22T07:16:36;15.40;;;7.05;;
61527;SDS011;47395;42.032;-8.634;2024-03-22T07:18:37;17.67;;;7.00;;
61527;SDS011;47395;42.032;-8.634;2024-03-22T07:20:38;16.45;;;7.50;;
61527;SDS011;47395;42.032;-8.634;2024-03-22T07:22:39;16.15;;;6.80;;
61527;SDS011;47395;42.032;-8.634;2024-03-22T07:24:40;15.02;;;6.72;;
61527;SDS011;47395;42.032;-8.634;2024-03-22T07:26:41;15.98;;;6.80;;
61527;SDS011;47395;42.032;-8.634;2024-03-22T07:28:42;17.00;;;6.80;;
61527;SDS011;47395;42.032;-8.634;2024-03-22T07:30:43;18.50;;;6.18;;
61527;SDS011;47395;42.032;-8.634;2024-03-22T07:32:45;15.38;;;5.78;;
61527;SDS011;47395;42.032;-8.634;2024-03-22T07:34:47;18.63;;;5.85;;
61527;SDS011;47395;42.032;-8.634;2024-03-22T07:36:48;18.45;;;6.47;;
61527;SDS011;47395;42.032;-8.634;2024-03-22T07:38:49;18.10;;;6.20;;
61527;SDS011;47395;42.032;-8.634;2024-03-22T07:40:50;22.05;;;6.00;;
61527;SDS011;47395;42.032;-8.634;2024-03-22T07:42:51;17.02;;;5.78;;
61527;SDS011;47395;42.032;-8.634;2024-03-22T07:44:52;14.13;;;5.60;;
61527;SDS011;47395;42.032;-8.634;2024-03-22T07:46:53;16.27;;;6.07;;
61527;SDS011;47395;42.032;-8.634;2024-03-22T07:48:55;11.43;;;5.57;;
61527;SDS011;47395;42.032;-8.634;2024-03-22T07:50:59;18.88;;;5.90;;
61527;SDS011;47395;42.032;-8.634;2024-03-22T07:53:01;12.07;;;5.63;;
61527;SDS011;47395;42.032;-8.634;2024-03-22T07:55:02;17.75;;;6.18;;
61527;SDS011;47395;42.032;-8.634;2024-03-22T07:57:03;16.83;;;5.68;;
61527;SDS011;47395;42.032;-8.634;2024-03-22T07:59:04;13.30;;;5.30;;
61527;SDS011;47395;42.032;-8.634;2024-03-22T08:01:05;19.75;;;5.43;;
61527;SDS011;47395;42.032;-8.634;2024-03-22T08:03:06;13.38;;;5.60;;
61527;SDS011;47395;42.032;-8.634;2024-03-22T08:05:08;16.98;;;5.80;;
61527;SDS011;47395;42.032;-8.634;2024-03-22T08:07:09;11.95;;;5.22;;
61527;SDS011;47395;42.032;-8.634;2024-03-22T08:09:10;15.20;;;5.05;;
61527;SDS011;47395;42.032;-8.634;2024-03-22T08:11:11;15.65;;;5.50;;
61527;SDS011;47395;42.032;-8.634;2024-03-22T08:13:12;10.45;;;4.95;;
61527;SDS011;47395;42.032;-8.634;2024-03-22T08:15:13;13.40;;;4.93;;
61527;SDS011;47395;42.032;-8.634;2024-03-22T08:17:14;13.40;;;5.05;;
61527;SDS011;47395;42.032;-8.634;2024-03-22T08:19:15;18.67;;;6.22;;
61527;SDS011;47395;42.032;-8.634;2024-03-22T08:21:16;16.70;;;6.75;;
61527;SDS011;47395;42.032;-8.634;2024-03-22T08:23:17;11.30;;;6.22;;
61527;SDS011;47395;42.032;-8.634;2024-03-22T08:25:20;15.77;;;6.30;;
61527;SDS011;47395;42.032;-8.634;2024-03-22T08:27:22;16.95;;;6.10;;
61527;SDS011;47395;42.032;-8.634;2024-03-22T08:29:25;15.95;;;6.00;;
61527;SDS011;47395;42.032;-8.634;2024-03-22T08:31:31;14.18;;;6.10;;
61527;SDS011;47395;42.032;-8.634;2024-03-22T08:33:32;12.05;;;5.35;;
61527;SDS011;47395;42.032;-8.634;2024-03-22T08:35:36;15.15;;;6.32;;
61527;SDS011;47395;42.032;-8.634;2024-03-22T08:37:38;14.18;;;5.80;;
61527;SDS011;47395;42.032;-8.634;2024-03-22T08:39:38;15.60;;;6.13;;
61527;SDS011;47395;42.032;-8.634;2024-03-22T08:41:39;16.63;;;6.18;;
61527;SDS011;47395;42.032;-8.634;2024-03-22T08:43:40;13.25;;;6.28;;
61527;SDS011;47395;42.032;-8.634;2024-03-22T08:45:41;19.70;;;6.78;;
61527;SDS011;47395;42.032;-8.634;2024-03-22T08:47:42;11.38;;;5.47;;
61527;SDS011;47395;42.032;-8.634;2024-03-22T08:49:46;14.63;;;6.13;;
61527;SDS011;47395;42.032;-8.634;2024-03-22T08:51:46;12.60;;;5.85;;
61527;SDS011;47395;42.032;-8.634;2024-03-22T08:53:48;19.60;;;6.43;;
61527;SDS011;47395;42.032;-8.634;2024-03-22T08:55:49;16.52;;;6.40;;
61527;SDS011;47395;42.032;-8.634;2024-03-22T08:57:50;17.38;;;6.72;;
61527;SDS011;47395;42.032;-8.634;2024-03-22T08:59:51;13.40;;;6.35;;
61527;SDS011;47395;42.032;-8.634;2024-03-22T09:01:52;15.65;;;6.25;;
61527;SDS011;47395;42.032;-8.634;2024-03-22T09:03:53;16.35;;;6.30;;
61527;SDS011;47395;42.032;-8.634;2024-03-22T09:05:57;13.23;;;6.45;;
61527;SDS011;47395;42.032;-8.634;2024-03-22T09:07:59;18.08;;;6.65;;
61527;SDS011;47395;42.032;-8.634;2024-03-22T09:10:00;17.88;;;7.07;;
61527;SDS011;47395;42.032;-8.634;2024-03-22T09:12:01;14.43;;;6.03;;
61527;SDS011;47395;42.032;-8.634;2024-03-22T09:14:02;10.73;;;5.78;;
61527;SDS011;47395;42.032;-8.634;2024-03-22T09:16:03;12.23;;;5.75;;
61527;SDS011;47395;42.032;-8.634;2024-03-22T09:18:04;15.13;;;4.97;;
61527;SDS011;47395;42.032;-8.634;2024-03-22T09:20:06;13.32;;;4.88;;
61527;SDS011;47395;42.032;-8.634;2024-03-22T09:22:08;8.98;;;4.43;;
61527;SDS011;47395;42.032;-8.634;2024-03-22T09:24:09;13.13;;;4.82;;
61527;SDS011;47395;42.032;-8.634;2024-03-22T09:26:10;7.68;;;4.10;;
61527;SDS011;47395;42.032;-8.634;2024-03-22T09:28:11;11.10;;;5.00;;
61527;SDS011;47395;42.032;-8.634;2024-03-22T09:30:13;11.02;;;4.55;;
61527;SDS011;47395;42.032;-8.634;2024-03-22T09:32:15;8.45;;;4.55;;
61527;SDS011;47395;42.032;-8.634;2024-03-22T09:34:16;16.00;;;5.10;;
61527;SDS011;47395;42.032;-8.634;2024-03-22T09:36:17;12.95;;;5.28;;
61527;SDS011;47395;42.032;-8.634;2024-03-22T09:38:19;20.92;;;6.15;;
61527;SDS011;47395;42.032;-8.634;2024-03-22T09:40:20;19.33;;;6.07;;
61527;SDS011;47395;42.032;-8.634;2024-03-22T09:42:21;13.82;;;5.35;;
61527;SDS011;47395;42.032;-8.634;2024-03-22T09:44:26;10.70;;;5.63;;
61527;SDS011;47395;42.032;-8.634;2024-03-22T09:46:29;11.25;;;4.95;;
61527;SDS011;47395;42.032;-8.634;2024-03-22T09:48:30;11.98;;;5.15;;
61527;SDS011;47395;42.032;-8.634;2024-03-22T09:50:33;12.32;;;5.40;;
61527;SDS011;47395;42.032;-8.634;2024-03-22T09:52:36;15.75;;;6.22;;
61527;SDS011;47395;42.032;-8.634;2024-03-22T09:54:38;12.80;;;6.53;;
61527;SDS011;47395;42.032;-8.634;2024-03-22T09:56:39;18.27;;;7.97;;
61527;SDS011;47395;42.032;-8.634;2024-03-22T09:58:41;20.15;;;6.70;;
61527;SDS011;47395;42.032;-8.634;2024-03-22T10:00:42;17.75;;;6.03;;
61527;SDS011;47395;42.032;-8.634;2024-03-22T10:02:45;16.33;;;6.97;;
61527;SDS011;47395;42.032;-8.634;2024-03-22T10:04:47;14.63;;;6.82;;
61527;SDS011;47395;42.032;-8.634;2024-03-22T10:06:48;22.85;;;7.38;;
61527;SDS011;47395;42.032;-8.634;2024-03-22T10:08:52;13.27;;;6.85;;
61527;SDS011;47395;42.032;-8.634;2024-03-22T10:10:53;20.98;;;6.70;;
61527;SDS011;47395;42.032;-8.634;2024-03-22T10:12:55;18.95;;;5.60;;
61527;SDS011;47395;42.032;-8.634;2024-03-22T10:14:57;14.15;;;4.53;;
61527;SDS011;47395;42.032;-8.634;2024-03-22T10:16:58;16.85;;;5.32;;
61527;SDS011;47395;42.032;-8.634;2024-03-22T10:18:59;20.20;;;4.82;;
61527;SDS011;47395;42.032;-8.634;2024-03-22T10:21:03;11.68;;;4.90;;
61527;SDS011;47395;42.032;-8.634;2024-03-22T10:23:05;13.02;;;5.53;;
61527;SDS011;47395;42.032;-8.634;2024-03-22T10:25:09;12.23;;;8.05;;
61527;SDS011;47395;42.032;-8.634;2024-03-22T10:27:10;25.15;;;11.40;;
61527;SDS011;47395;42.032;-8.634;2024-03-22T10:29:11;16.67;;;8.30;;
61527;SDS011;47395;42.032;-8.634;2024-03-22T10:31:13;21.45;;;8.05;;
61527;SDS011;47395;42.032;-8.634;2024-03-22T10:33:16;17.20;;;7.00;;
61527;SDS011;47395;42.032;-8.634;2024-03-22T10:35:26;19.63;;;7.00;;
61527;SDS011;47395;42.032;-8.634;2024-03-22T10:37:27;22.55;;;9.48;;
61527;SDS011;47395;42.032;-8.634;2024-03-22T10:39:28;23.17;;;6.93;;
61527;SDS011;47395;42.032;-8.634;2024-03-22T10:41:31;15.63;;;6.10;;
61527;SDS011;47395;42.032;-8.634;2024-03-22T10:43:31;14.75;;;6.13;;
61527;SDS011;47395;42.032;-8.634;2024-03-22T10:45:33;16.67;;;5.63;;
61527;SDS011;47395;42.032;-8.634;2024-03-22T10:47:36;20.45;;;6.70;;
61527;SDS011;47395;42.032;-8.634;2024-03-22T10:49:37;16.17;;;6.43;;
61527;SDS011;47395;42.032;-8.634;2024-03-22T10:51:39;19.23;;;6.40;;
61527;SDS011;47395;42.032;-8.634;2024-03-22T10:53:41;12.32;;;6.53;;
61527;SDS011;47395;42.032;-8.634;2024-03-22T10:55:42;13.38;;;6.38;;
61527;SDS011;47395;42.032;-8.634;2024-03-22T10:57:45;18.75;;;6.78;;
61527;SDS011;47395;42.032;-8.634;2024-03-22T10:59:47;16.33;;;5.63;;
61527;SDS011;47395;42.032;-8.634;2024-03-22T11:01:50;13.45;;;6.55;;
61527;SDS011;47395;42.032;-8.634;2024-03-22T11:04:14;17.77;;;7.75;;
61527;SDS011;47395;42.032;-8.634;2024-03-22T11:06:13;27.75;;;6.45;;
61527;SDS011;47395;42.032;-8.634;2024-03-22T11:10:29;13.73;;;6.10;;
61527;SDS011;47395;42.032;-8.634;2024-03-22T11:12:31;17.30;;;6.00;;
61527;SDS011;47395;42.032;-8.634;2024-03-22T11:14:33;22.55;;;6.32;;
61527;SDS011;47395;42.032;-8.634;2024-03-22T11:16:34;13.65;;;6.05;;
61527;SDS011;47395;42.032;-8.634;2024-03-22T11:18:38;13.07;;;6.32;;
61527;SDS011;47395;42.032;-8.634;2024-03-22T11:20:40;19.65;;;5.82;;
61527;SDS011;47395;42.032;-8.634;2024-03-22T11:22:46;15.82;;;5.60;;
61527;SDS011;47395;42.032;-8.634;2024-03-22T11:24:52;18.13;;;4.75;;
61527;SDS011;47395;42.032;-8.634;2024-03-22T11:26:53;11.85;;;4.68;;
61527;SDS011;47395;42.032;-8.634;2024-03-22T11:28:54;11.13;;;5.05;;
61527;SDS011;47395;42.032;-8.634;2024-03-22T11:30:55;16.08;;;6.07;;
61527;SDS011;47395;42.032;-8.634;2024-03-22T11:32:56;14.80;;;5.25;;
61527;SDS011;47395;42.032;-8.634;2024-03-22T11:34:57;16.00;;;5.65;;
61527;SDS011;47395;42.032;-8.634;2024-03-22T11:36:58;8.63;;;4.25;;
61527;SDS011;47395;42.032;-8.634;2024-03-22T11:38:59;14.35;;;4.80;;
61527;SDS011;47395;42.032;-8.634;2024-03-22T11:41:00;14.25;;;4.72;;
61527;SDS011;47395;42.032;-8.634;2024-03-22T11:43:03;13.10;;;4.82;;
61527;SDS011;47395;42.032;-8.634;2024-03-22T11:45:05;16.13;;;6.07;;
61527;SDS011;47395;42.032;-8.634;2024-03-22T11:47:09;13.20;;;5.65;;
61527;SDS011;47395;42.032;-8.634;2024-03-22T11:49:11;16.77;;;6.28;;
61527;SDS011;47395;42.032;-8.634;2024-03-22T11:51:12;20.02;;;7.13;;
61527;SDS011;47395;42.032;-8.634;2024-03-22T11:53:13;19.98;;;6.43;;